Time;durP1;ratioP1;P1;durP2;ratioP2;P2;SDS_P1;SDS_P2;PMS_P1;PMS_P2;Temp;Humidity;BMP_temperature;BMP_pressure;BME280_temperature;BME280_humidity;BME280_pressure;Samples;Min_cycle;Max_cycle;Signal;HPM_P1;HPM_P2
2023/02/26 00:01:24;;;;;;;5.50;3.37;;;-0.80;99.90;;;;;;5005748;28;20034;-79
2023/02/26 00:03:52;;;;;;;4.50;3.03;;;-0.70;99.90;;;;;;5005945;28;20042;-79
2023/02/26 00:06:19;;;;;;;5.00;2.70;;;-0.70;99.90;;;;;;5006609;28;20415;-79
2023/02/26 00:08:44;;;;;;;2.80;2.30;;;-0.70;99.90;;;;;;5009803;28;20030;-79
2023/02/26 00:11:10;;;;;;;3.60;2.20;;;-0.70;99.90;;;;;;5008339;28;20065;-79
2023/02/26 00:13:37;;;;;;;3.60;2.47;;;-0.80;99.90;;;;;;5005745;28;20033;-79
2023/02/26 00:16:12;;;;;;;3.50;2.60;;;-0.80;99.90;;;;;;5008345;28;20042;-79
2023/02/26 00:18:38;;;;;;;3.30;1.90;;;-0.90;99.90;;;;;;5007103;28;20137;-79
2023/02/26 00:21:04;;;;;;;4.17;2.40;;;-0.90;99.90;;;;;;5008712;28;20104;-79
2023/02/26 00:23:29;;;;;;;5.87;3.00;;;-0.90;99.90;;;;;;5005851;28;20068;-79
2023/02/26 00:25:57;;;;;;;3.33;2.67;;;-0.90;99.90;;;;;;5007106;28;20459;-79
2023/02/26 00:28:23;;;;;;;7.37;2.50;;;-0.90;99.90;;;;;;5007173;28;20061;-79
2023/02/26 00:30:49;;;;;;;4.27;2.70;;;-0.90;99.90;;;;;;5003822;28;20029;-79
2023/02/26 00:33:14;;;;;;;3.40;2.20;;;-0.90;99.90;;;;;;5004288;28;20030;-79
2023/02/26 00:35:40;;;;;;;4.00;1.70;;;-0.70;99.90;;;;;;5003747;28;20027;-79
2023/02/26 00:38:10;;;;;;;2.10;1.50;;;-0.70;99.90;;;;;;5003393;28;20077;-79
2023/02/26 00:40:44;;;;;;;4.73;1.77;;;-0.70;99.90;;;;;;5005892;28;20045;-79
2023/02/26 00:43:18;;;;;;;2.45;1.17;;;-0.80;99.90;;;;;;5005600;28;20033;-79
2023/02/26 00:46:14;;;;;;;2.67;1.60;;;-0.90;99.90;;;;;;5019907;28;20034;-79
2023/02/26 00:48:58;;;;;;;;;;;-0.90;99.90;;;;;;5004964;28;20030;-79
2023/02/26 00:51:36;;;;;;;65.67;23.13;;;-0.90;99.90;;;;;;5009357;28;20004;-79
2023/02/26 00:54:29;;;;;;;3.93;2.13;;;-1.00;99.90;;;;;;5004233;28;20034;-79
2023/02/26 00:56:56;;;;;;;17.07;5.80;;;-1.00;99.90;;;;;;5002931;28;20041;-79
2023/02/26 00:59:23;;;;;;;3.47;2.23;;;-1.00;99.90;;;;;;5006876;28;20105;-79
2023/02/26 01:01:50;;;;;;;1.77;1.40;;;-1.00;99.90;;;;;;5004650;28;20022;-79
2023/02/26 01:04:19;;;;;;;2.43;1.50;;;-1.00;99.90;;;;;;5008358;28;20033;-79
2023/02/26 01:06:51;;;;;;;3.83;1.73;;;-1.00;99.90;;;;;;5002854;28;20531;-79
2023/02/26 01:09:27;;;;;;;3.40;2.17;;;-1.10;99.90;;;;;;5006129;28;20106;-79
2023/02/26 01:15:15;;;;;;;4.30;1.60;;;-1.00;99.90;;;;;;5002340;28;20037;-79
2023/02/26 01:18:03;;;;;;;2.33;1.63;;;-1.10;99.90;;;;;;5010226;28;20030;-79
2023/02/26 01:20:42;;;;;;;2.80;1.70;;;-1.10;99.90;;;;;;5004918;28;20037;-79
2023/02/26 01:23:17;;;;;;;2.07;1.70;;;-1.10;99.90;;;;;;5007173;28;20022;-79
2023/02/26 01:25:47;;;;;;;;;;;-1.10;99.90;;;;;;4995443;28;20472;-79
2023/02/26 01:28:13;;;;;;;3.67;1.50;;;-1.10;99.90;;;;;;5004504;28;20357;-79
2023/02/26 01:30:39;;;;;;;6.73;3.67;;;-1.20;99.90;;;;;;5008638;28;20108;-79
2023/02/26 01:33:20;;;;;;;3.00;1.80;;;-1.20;99.90;;;;;;5002872;28;20026;-79
2023/02/26 01:36:00;;;;;;;4.90;2.00;;;-1.30;99.90;;;;;;5004000;28;20447;-79
2023/02/26 01:38:38;;;;;;;3.53;1.97;;;-1.30;99.90;;;;;;5002893;28;20105;-79
2023/02/26 01:41:06;;;;;;;3.47;2.07;;;-1.30;99.90;;;;;;5005699;28;20491;-79
2023/02/26 01:43:50;;;;;;;4.17;1.90;;;-1.40;99.90;;;;;;5003094;28;20030;-79
2023/02/26 01:46:22;;;;;;;2.40;1.53;;;-1.30;99.90;;;;;;5003534;28;20112;-79
2023/02/26 01:48:49;;;;;;;4.73;2.50;;;-1.30;99.90;;;;;;5008718;28;20034;-79
2023/02/26 01:51:16;;;;;;;4.57;1.70;;;-1.30;99.90;;;;;;5003232;28;20018;-79
2023/02/26 01:53:41;;;;;;;2.60;1.63;;;-1.30;99.90;;;;;;5003663;28;20070;-79
2023/02/26 01:56:18;;;;;;;4.20;1.70;;;-1.30;99.90;;;;;;5010891;28;20466;-79
2023/02/26 01:58:48;;;;;;;3.03;1.87;;;-1.30;99.90;;;;;;5006590;28;20052;-79
2023/02/26 02:01:13;;;;;;;2.63;1.70;;;-1.30;99.90;;;;;;5012655;28;20483;-78
2023/02/26 02:03:41;;;;;;;4.20;1.70;;;-1.40;99.90;;;;;;5013517;28;20032;-79
2023/02/26 02:06:17;;;;;;;3.33;1.67;;;-1.40;99.90;;;;;;5010204;28;20037;-79
2023/02/26 02:08:43;;;;;;;2.93;1.97;;;-1.40;99.90;;;;;;5012535;28;20022;-79
2023/02/26 02:11:11;;;;;;;3.37;1.90;;;-1.30;99.90;;;;;;5005373;28;20030;-79
2023/02/26 02:14:14;;;;;;;2.00;1.70;;;-1.40;99.90;;;;;;5003344;28;20598;-79
2023/02/26 02:17:20;;;;;;;7.03;1.90;;;-1.40;99.90;;;;;;5004767;28;20101;-79
2023/02/26 02:20:10;;;;;;;5.55;2.63;;;-1.30;99.90;;;;;;5003547;28;20085;-79
2023/02/26 02:22:51;;;;;;;4.73;2.00;;;-1.40;99.90;;;;;;5005983;28;20105;-78
2023/02/26 02:32:10;;;;;;;2.07;1.50;;;-1.40;99.90;;;;;;4996437;28;20656;-78
2023/02/26 02:34:57;;;;;;;2.40;1.67;;;-1.40;99.90;;;;;;5004882;28;20148;-78
2023/02/26 02:37:37;;;;;;;5.53;1.80;;;-1.30;99.90;;;;;;5005123;28;20034;-78
2023/02/26 02:40:24;;;;;;;3.27;1.60;;;-1.30;99.90;;;;;;5005457;28;20127;-78
2023/02/26 02:43:19;;;;;;;3.17;1.50;;;-1.30;99.90;;;;;;5004679;28;20033;-78
2023/02/26 02:45:57;;;;;;;3.55;1.77;;;-1.40;99.90;;;;;;5006130;28;20038;-78
2023/02/26 02:48:32;;;;;;;4.17;1.80;;;-1.40;99.90;;;;;;5006866;28;20069;-78
2023/02/26 02:51:21;;;;;;;5.07;1.50;;;-1.40;99.90;;;;;;5006914;28;20034;-78
2023/02/26 02:53:55;;;;;;;3.33;1.70;;;-1.40;99.90;;;;;;5006030;28;20131;-78
2023/02/26 02:56:27;;;;;;;1.55;1.10;;;-1.50;99.90;;;;;;5007779;28;20038;-78
2023/02/26 02:59:31;;;;;;;3.30;1.60;;;-1.50;99.90;;;;;;5004911;28;20021;-78
2023/02/26 03:02:07;;;;;;;4.53;1.60;;;-1.50;99.90;;;;;;5001326;28;20038;-78
2023/02/26 03:04:33;;;;;;;3.23;1.43;;;-1.50;99.90;;;;;;5004380;28;20097;-78
2023/02/26 03:06:59;;;;;;;4.60;1.57;;;-1.60;99.90;;;;;;5004783;28;20029;-78
2023/02/26 03:09:24;;;;;;;5.50;1.57;;;-1.70;99.90;;;;;;5005099;28;20041;-78
2023/02/26 03:11:50;;;;;;;3.00;1.40;;;-1.70;99.90;;;;;;5004193;28;20044;-78
2023/02/26 03:14:16;;;;;;;2.30;1.37;;;-1.70;99.90;;;;;;5005125;28;20030;-77
2023/02/26 03:16:41;;;;;;;4.90;1.53;;;-1.70;99.90;;;;;;5003105;28;20031;-77
2023/02/26 03:19:13;;;;;;;6.40;1.70;;;-1.70;99.90;;;;;;5002571;28;20037;-78
2023/02/26 03:22:02;;;;;;;2.70;1.40;;;-1.70;99.90;;;;;;5003187;28;20493;-77
2023/02/26 03:24:39;;;;;;;3.00;1.70;;;-1.70;99.90;;;;;;4998999;28;20026;-78
2023/02/26 03:27:32;;;;;;;3.53;1.50;;;-1.80;99.90;;;;;;5002409;28;20121;-77
2023/02/26 03:29:58;;;;;;;4.50;1.80;;;-1.80;99.90;;;;;;5005661;28;20467;-78
2023/02/26 03:32:42;;;;;;;3.77;1.57;;;-1.80;99.90;;;;;;5006737;28;20026;-77
2023/02/26 03:35:17;;;;;;;3.27;2.00;;;-1.90;99.90;;;;;;5005058;28;20018;-77
2023/02/26 03:37:42;;;;;;;;;;;-1.90;99.90;;;;;;5005465;28;20014;-78
2023/02/26 03:40:18;;;;;;;2.77;1.50;;;-1.90;99.90;;;;;;5004036;28;19939;-78
2023/02/26 03:42:49;;;;;;;4.37;1.60;;;-1.90;99.90;;;;;;5001457;28;20037;-78
2023/02/26 03:45:19;;;;;;;3.00;1.57;;;-1.90;99.90;;;;;;5005175;28;20164;-78
2023/02/26 03:47:48;;;;;;;3.63;1.67;;;-1.90;99.90;;;;;;5003761;28;20026;-77
2023/02/26 03:50:19;;;;;;;3.93;1.37;;;-1.90;99.90;;;;;;5005384;28;20035;-77
2023/02/26 03:52:48;;;;;;;3.97;1.57;;;-1.90;99.90;;;;;;5005675;28;20494;-77
2023/02/26 03:55:16;;;;;;;1.80;1.30;;;-1.90;99.90;;;;;;5003717;28;20676;-77
2023/02/26 03:57:42;;;;;;;4.93;2.27;;;-1.90;99.90;;;;;;5005845;28;20415;-77
2023/02/26 04:00:09;;;;;;;5.33;2.20;;;-1.90;99.90;;;;;;5002987;28;20038;-77
2023/02/26 04:02:47;;;;;;;5.97;1.80;;;-2.00;99.90;;;;;;5002906;28;20030;-78
2023/02/26 04:05:30;;;;;;;5.23;2.07;;;-2.00;99.90;;;;;;5004425;28;20069;-77
2023/02/26 04:07:56;;;;;;;2.60;1.57;;;-2.00;99.90;;;;;;5002735;28;20395;-77
2023/02/26 04:10:31;;;;;;;2.63;1.53;;;-2.00;99.90;;;;;;5001508;28;20088;-77
2023/02/26 04:13:01;;;;;;;3.13;1.70;;;-2.00;99.90;;;;;;5001908;28;20028;-77
2023/02/26 04:15:27;;;;;;;6.70;1.60;;;-2.00;99.90;;;;;;5004202;28;20586;-77
2023/02/26 04:17:52;;;;;;;7.03;1.70;;;-2.10;99.90;;;;;;5002901;28;20025;-77
2023/02/26 04:20:18;;;;;;;4.03;1.60;;;-2.00;99.90;;;;;;5002880;28;20679;-77
2023/02/26 04:22:44;;;;;;;5.20;1.53;;;-2.00;99.90;;;;;;5002589;28;20034;-78
2023/02/26 04:25:09;;;;;;;2.87;1.47;;;-2.10;99.90;;;;;;5005629;28;20052;-78
2023/02/26 04:27:35;;;;;;;4.77;1.83;;;-2.10;99.90;;;;;;5006020;28;20913;-78
2023/02/26 04:30:00;;;;;;;4.60;1.30;;;-2.00;99.90;;;;;;5001291;28;20057;-78
2023/02/26 04:32:26;;;;;;;3.13;1.50;;;-2.10;99.90;;;;;;5004652;28;20040;-78
2023/02/26 04:34:51;;;;;;;4.00;1.97;;;-2.10;99.90;;;;;;5004079;28;20057;-78
2023/02/26 04:37:17;;;;;;;3.10;1.40;;;-2.10;99.90;;;;;;5003008;28;20117;-78
2023/02/26 04:39:42;;;;;;;3.70;1.40;;;-2.10;99.90;;;;;;5001809;28;20026;-78
2023/02/26 04:42:08;;;;;;;7.37;2.57;;;-2.20;99.90;;;;;;5004387;28;20026;-78
2023/02/26 04:44:33;;;;;;;6.07;1.40;;;-2.20;99.90;;;;;;5001110;28;20026;-78
2023/02/26 04:46:59;;;;;;;4.40;1.70;;;-2.20;99.90;;;;;;5002895;28;20026;-78
2023/02/26 04:49:24;;;;;;;7.23;1.60;;;-2.30;99.90;;;;;;5005574;28;20038;-78
2023/02/26 04:51:50;;;;;;;4.53;1.60;;;-2.30;99.90;;;;;;5004722;28;20025;-78
2023/02/26 04:54:15;;;;;;;4.10;1.60;;;-2.30;99.90;;;;;;5007009;28;20095;-78
2023/02/26 04:56:41;;;;;;;4.67;1.70;;;-2.30;99.90;;;;;;5007219;28;20036;-78
2023/02/26 04:59:07;;;;;;;4.00;1.40;;;-2.30;99.90;;;;;;5007064;28;20022;-78
2023/02/26 05:01:32;;;;;;;5.57;1.40;;;-2.40;99.90;;;;;;5008577;28;20040;-78
2023/02/26 05:03:58;;;;;;;8.37;1.90;;;-2.40;99.90;;;;;;5008108;28;20759;-78
2023/02/26 05:06:24;;;;;;;4.10;1.70;;;-2.40;99.90;;;;;;5008149;28;20423;-78
2023/02/26 05:08:50;;;;;;;7.40;1.80;;;-2.50;99.90;;;;;;5006842;28;20492;-78
2023/02/26 05:11:15;;;;;;;5.57;1.77;;;-2.50;99.90;;;;;;5004103;28;20040;-78
2023/02/26 05:13:41;;;;;;;4.37;1.60;;;-2.60;99.90;;;;;;5001440;28;20022;-78
2023/02/26 05:16:07;;;;;;;3.13;1.60;;;-2.60;99.90;;;;;;5006085;28;20026;-78
2023/02/26 05:18:32;;;;;;;4.87;1.73;;;-2.70;99.90;;;;;;5004156;28;20029;-78
2023/02/26 05:20:58;;;;;;;8.70;3.20;;;-2.70;99.90;;;;;;5008523;28;20026;-78
2023/02/26 05:23:24;;;;;;;7.37;1.70;;;-2.80;99.90;;;;;;5006487;28;20471;-78
2023/02/26 05:25:49;;;;;;;5.20;2.07;;;-2.80;99.90;;;;;;5003329;28;20036;-78
2023/02/26 05:28:15;;;;;;;12.30;6.47;;;-2.80;99.90;;;;;;5006208;28;20030;-78
2023/02/26 05:30:41;;;;;;;5.77;1.83;;;-2.90;99.90;;;;;;5006785;28;20041;-78
2023/02/26 05:33:07;;;;;;;6.17;2.10;;;-2.90;99.90;;;;;;5005325;28;20025;-78
2023/02/26 05:35:33;;;;;;;3.97;1.53;;;-3.00;99.90;;;;;;5006230;28;20378;-76
2023/02/26 05:37:58;;;;;;;5.10;1.50;;;-3.00;99.90;;;;;;5007868;28;20018;-76
2023/02/26 05:40:24;;;;;;;5.60;1.90;;;-3.00;99.90;;;;;;5006334;28;20030;-76
2023/02/26 05:42:50;;;;;;;3.40;1.50;;;-3.10;99.90;;;;;;5011807;28;20040;-76
2023/02/26 05:45:16;;;;;;;8.27;1.80;;;-3.10;99.90;;;;;;5006606;28;20030;-76
2023/02/26 05:47:42;;;;;;;6.03;1.60;;;-3.20;99.90;;;;;;5010017;28;20105;-76
2023/02/26 05:50:09;;;;;;;4.00;1.50;;;-3.20;99.90;;;;;;5008954;28;20526;-76
2023/02/26 05:52:34;;;;;;;4.67;1.83;;;-3.20;99.90;;;;;;5006544;28;20053;-77
2023/02/26 05:55:01;;;;;;;13.73;1.97;;;-3.30;99.90;;;;;;5007229;28;20117;-76
2023/02/26 05:57:27;;;;;;;6.00;1.70;;;-3.30;99.90;;;;;;5009601;28;20026;-76
2023/02/26 05:59:52;;;;;;;3.70;2.07;;;-3.30;99.90;;;;;;5005915;28;20026;-76
2023/02/26 06:02:18;;;;;;;4.03;1.73;;;-3.30;99.90;;;;;;5007935;28;20058;-77
2023/02/26 06:04:44;;;;;;;3.97;1.87;;;-3.40;99.90;;;;;;5007130;28;20377;-76
2023/02/26 06:07:12;;;;;;;5.87;1.70;;;-3.40;99.90;;;;;;5007628;28;20475;-76
2023/02/26 06:09:37;;;;;;;3.77;1.53;;;-3.40;99.90;;;;;;5007969;28;20128;-76
2023/02/26 06:12:03;;;;;;;5.10;1.60;;;-3.50;99.90;;;;;;5006369;28;20034;-76
2023/02/26 06:14:28;;;;;;;5.00;1.90;;;-3.50;99.90;;;;;;5006516;28;21306;-78
2023/02/26 06:16:54;;;;;;;4.53;1.70;;;-3.50;99.90;;;;;;5005828;28;20034;-76
2023/02/26 06:19:20;;;;;;;6.93;2.40;;;-3.50;99.90;;;;;;5006816;28;20036;-76
2023/02/26 06:21:46;;;;;;;6.07;1.70;;;-3.50;99.90;;;;;;5005771;28;20026;-75
2023/02/26 06:24:12;;;;;;;6.23;1.60;;;-3.50;99.90;;;;;;5005536;28;20103;-76
2023/02/26 06:26:37;;;;;;;6.23;2.10;;;-3.50;99.90;;;;;;5005750;28;20045;-76
2023/02/26 06:29:03;;;;;;;6.93;2.20;;;-3.50;99.90;;;;;;5002091;28;20048;-76
2023/02/26 06:31:28;;;;;;;3.63;1.53;;;-3.50;99.90;;;;;;5004901;28;20038;-76
2023/02/26 06:33:54;;;;;;;6.63;2.13;;;-3.50;99.90;;;;;;5004228;28;20035;-76
2023/02/26 06:36:19;;;;;;;9.23;1.93;;;-3.60;99.90;;;;;;5003985;28;20041;-76
2023/02/26 06:38:45;;;;;;;3.90;1.63;;;-3.60;99.90;;;;;;5004328;28;20451;-76
2023/02/26 06:41:11;;;;;;;6.23;1.80;;;-3.70;99.90;;;;;;5006765;28;20024;-76
2023/02/26 06:43:37;;;;;;;6.13;1.87;;;-3.70;99.90;;;;;;5006117;28;20029;-75
2023/02/26 06:46:03;;;;;;;5.87;1.80;;;-3.70;99.90;;;;;;5007003;28;20088;-78
2023/02/26 06:48:28;;;;;;;7.20;2.00;;;-3.70;99.90;;;;;;5007978;28;20092;-78
2023/02/26 06:50:54;;;;;;;6.90;2.23;;;-3.70;99.90;;;;;;5005040;28;20022;-78
2023/02/26 06:53:19;;;;;;;3.80;2.20;;;-3.70;99.90;;;;;;5006330;28;20117;-78
2023/02/26 06:55:48;;;;;;;6.60;1.87;;;-3.70;99.90;;;;;;5006997;28;20033;-78
2023/02/26 06:58:14;;;;;;;6.33;1.70;;;-3.70;99.90;;;;;;4999198;28;20033;-78
2023/02/26 07:00:40;;;;;;;5.83;1.60;;;-3.60;99.90;;;;;;5005623;28;20034;-77
2023/02/26 07:03:06;;;;;;;7.63;2.20;;;-3.60;99.90;;;;;;5005456;28;20032;-77
2023/02/26 07:05:31;;;;;;;3.43;1.93;;;-3.60;99.90;;;;;;5002643;28;20034;-78
2023/02/26 07:07:57;;;;;;;6.73;2.53;;;-3.60;99.90;;;;;;5007619;28;20072;-77
2023/02/26 07:10:24;;;;;;;8.10;2.17;;;-3.60;99.90;;;;;;5005830;28;20438;-78
2023/02/26 07:12:50;;;;;;;3.73;1.83;;;-3.60;99.90;;;;;;5002435;28;20018;-78
2023/02/26 07:15:16;;;;;;;4.23;1.90;;;-3.60;99.90;;;;;;5000587;28;20037;-78
2023/02/26 07:17:42;;;;;;;3.87;1.80;;;-3.50;99.90;;;;;;5004003;28;20020;-78
2023/02/26 07:20:09;;;;;;;9.87;2.10;;;-3.40;99.90;;;;;;5004510;28;20033;-78
2023/02/26 07:22:36;;;;;;;6.93;2.33;;;-3.40;99.90;;;;;;5006305;28;20080;-78
2023/02/26 07:25:02;;;;;;;6.33;1.93;;;-3.30;99.90;;;;;;5001343;28;20036;-80
2023/02/26 07:27:28;;;;;;;6.57;2.37;;;-3.20;99.90;;;;;;5001000;28;20656;-78
2023/02/26 07:29:54;;;;;;;5.27;1.93;;;-3.20;99.90;;;;;;4999603;28;20046;-78
2023/02/26 07:32:21;;;;;;;7.90;2.30;;;-3.10;99.90;;;;;;5003186;28;20072;-78
2023/02/26 07:34:46;;;;;;;6.67;2.00;;;-3.10;99.90;;;;;;5006266;28;20026;-78
2023/02/26 07:37:14;;;;;;;9.10;2.47;;;-3.10;99.90;;;;;;5008744;28;20026;-77
2023/02/26 07:39:39;;;;;;;10.37;2.80;;;-3.00;99.90;;;;;;5008873;28;20087;-80
2023/02/26 07:42:05;;;;;;;9.00;2.70;;;-3.00;99.90;;;;;;5004404;28;20032;-80
2023/02/26 07:44:30;;;;;;;6.57;2.50;;;-2.90;99.90;;;;;;5006082;28;20340;-77
2023/02/26 07:46:56;;;;;;;7.73;2.30;;;-2.80;99.90;;;;;;5007744;28;20479;-78
2023/02/26 07:49:21;;;;;;;5.30;2.03;;;-2.80;99.90;;;;;;5006607;28;20030;-78
2023/02/26 07:51:47;;;;;;;6.37;2.07;;;-2.70;99.90;;;;;;5000232;28;20030;-76
2023/02/26 07:54:14;;;;;;;7.13;2.03;;;-2.70;99.90;;;;;;5000588;28;20076;-78
2023/02/26 07:56:41;;;;;;;6.40;2.30;;;-2.60;99.90;;;;;;5004667;28;20030;-77
2023/02/26 07:59:08;;;;;;;4.97;2.00;;;-2.50;99.90;;;;;;5002647;28;20104;-77
2023/02/26 08:01:34;;;;;;;4.80;2.33;;;-2.40;99.90;;;;;;4998374;28;20466;-77
2023/02/26 08:04:00;;;;;;;8.17;2.93;;;-2.40;99.90;;;;;;5002461;28;20448;-77
2023/02/26 08:06:26;;;;;;;6.47;2.97;;;-2.40;99.90;;;;;;4998430;28;20040;-78
2023/02/26 08:08:51;;;;;;;10.03;4.83;;;-2.30;99.90;;;;;;5001278;28;20775;-79
2023/02/26 08:11:17;;;;;;;9.10;3.23;;;-2.20;99.90;;;;;;5001808;28;20034;-79
2023/02/26 08:13:42;;;;;;;4.63;2.53;;;-2.20;99.90;;;;;;5002383;28;20111;-79
2023/02/26 08:16:08;;;;;;;6.20;2.80;;;-2.10;99.90;;;;;;5003315;28;20030;-79
2023/02/26 08:18:33;;;;;;;6.23;3.10;;;-2.10;99.90;;;;;;5002405;28;20029;-79
2023/02/26 08:20:59;;;;;;;9.43;5.63;;;-2.10;99.90;;;;;;5002866;28;20038;-76
2023/02/26 08:23:25;;;;;;;5.63;3.00;;;-2.00;99.90;;;;;;4997479;28;20429;-76
2023/02/26 08:26:01;;;;;;;6.80;2.40;;;-2.00;99.90;;;;;;4997894;28;20085;-76
2023/02/26 08:28:26;;;;;;;4.23;2.20;;;-2.00;99.90;;;;;;5006168;28;20479;-76
2023/02/26 08:30:52;;;;;;;6.17;2.50;;;-2.00;99.90;;;;;;5004326;28;20036;-76
2023/02/26 08:33:18;;;;;;;7.00;2.30;;;-1.90;99.90;;;;;;5003484;28;20350;-76
2023/02/26 08:35:43;;;;;;;6.20;2.50;;;-1.90;99.90;;;;;;5001994;28;20034;-77
2023/02/26 08:38:09;;;;;;;4.67;2.30;;;-1.90;99.90;;;;;;5005783;28;20018;-78
2023/02/26 08:40:35;;;;;;;5.67;3.47;;;-1.90;99.90;;;;;;5005917;28;20038;-77
2023/02/26 08:43:02;;;;;;;10.67;6.20;;;-2.00;99.90;;;;;;5007413;28;20030;-77
2023/02/26 08:45:28;;;;;;;9.90;5.40;;;-2.00;99.90;;;;;;5004075;28;20044;-77
2023/02/26 08:47:54;;;;;;;7.30;3.73;;;-2.00;99.90;;;;;;5003723;28;20037;-77
2023/02/26 08:50:20;;;;;;;8.00;4.50;;;-1.90;99.90;;;;;;5006040;28;20752;-78
2023/02/26 08:52:45;;;;;;;5.97;3.10;;;-1.90;99.90;;;;;;5003550;28;20139;-78
2023/02/26 08:55:11;;;;;;;19.30;5.07;;;-1.90;99.90;;;;;;5005407;28;20022;-77
2023/02/26 08:57:36;;;;;;;6.10;2.60;;;-1.90;99.90;;;;;;5002092;28;20072;-77
2023/02/26 09:00:04;;;;;;;6.63;3.00;;;-1.80;99.90;;;;;;5002469;28;20080;-77
2023/02/26 09:02:30;;;;;;;18.03;6.07;;;-1.90;99.90;;;;;;5004734;28;20034;-78
2023/02/26 09:04:55;;;;;;;13.77;4.33;;;-1.90;99.90;;;;;;4997666;28;20057;-78
2023/02/26 09:07:21;;;;;;;7.40;3.10;;;-1.90;99.90;;;;;;4998288;28;20038;-78
2023/02/26 09:09:46;;;;;;;9.03;3.57;;;-1.80;99.90;;;;;;5001157;28;20053;-78
2023/02/26 09:12:12;;;;;;;4.33;2.70;;;-1.80;99.90;;;;;;5002827;28;20048;-76
2023/02/26 09:14:37;;;;;;;9.03;4.20;;;-1.80;99.90;;;;;;5006529;28;21032;-76
2023/02/26 09:17:03;;;;;;;6.07;3.17;;;-1.80;99.90;;;;;;5006675;28;20128;-77
2023/02/26 09:19:28;;;;;;;10.93;5.37;;;-1.90;99.90;;;;;;5007350;28;20033;-77
2023/02/26 09:21:54;;;;;;;10.93;5.80;;;-1.90;99.90;;;;;;5000397;28;20049;-76
2023/02/26 09:24:20;;;;;;;8.20;3.97;;;-1.90;99.90;;;;;;5000270;28;20509;-80
2023/02/26 09:26:45;;;;;;;9.20;4.00;;;-1.80;99.90;;;;;;5002288;28;21472;-78
2023/02/26 09:29:12;;;;;;;5.97;2.93;;;-1.80;99.90;;;;;;5001100;28;20044;-78
2023/02/26 09:31:37;;;;;;;5.77;3.10;;;-1.80;99.90;;;;;;5001391;28;20041;-78
2023/02/26 09:34:03;;;;;;;6.93;3.40;;;-1.70;99.90;;;;;;4997888;28;20030;-78
2023/02/26 09:36:30;;;;;;;4.77;2.80;;;-1.70;99.90;;;;;;5001098;28;20037;-78
2023/02/26 09:38:58;;;;;;;4.47;2.67;;;-1.60;99.90;;;;;;4996796;28;20076;-80
2023/02/26 09:41:35;;;;;;;5.43;2.80;;;-1.50;99.90;;;;;;5004590;28;20040;-77
2023/02/26 09:44:20;;;;;;;5.47;2.43;;;-1.40;99.90;;;;;;4996898;28;20798;-80
2023/02/26 09:47:07;;;;;;;5.80;2.77;;;-1.40;99.90;;;;;;5002954;28;20041;-79
2023/02/26 09:50:05;;;;;;;5.03;2.83;;;-1.30;99.90;;;;;;5003399;28;20071;-79
2023/02/26 09:52:38;;;;;;;4.53;3.03;;;-1.30;99.90;;;;;;4998100;28;20045;-84
2023/02/26 09:55:15;;;;;;;6.60;3.40;;;-1.40;99.90;;;;;;4999283;28;20022;-81
2023/02/26 09:57:43;;;;;;;11.03;5.20;;;-1.40;99.90;;;;;;5001194;28;20049;-81
2023/02/26 10:00:15;;;;;;;10.47;5.23;;;-1.40;99.90;;;;;;4998618;28;20034;-81
2023/02/26 10:02:56;;;;;;;5.40;3.60;;;-1.50;99.90;;;;;;5000989;28;20026;-81
2023/02/26 10:05:59;;;;;;;6.77;3.43;;;-1.40;99.90;;;;;;5000291;28;20105;-81
2023/02/26 10:08:35;;;;;;;5.27;3.30;;;-1.40;99.90;;;;;;4991577;28;20042;-79
2023/02/26 10:11:10;;;;;;;4.60;3.33;;;-1.40;99.90;;;;;;4998578;28;20038;-77
2023/02/26 10:13:45;;;;;;;5.03;3.03;;;-1.40;99.90;;;;;;5001034;28;20042;-77
2023/02/26 10:16:16;;;;;;;8.00;3.87;;;-1.40;99.90;;;;;;4999850;28;20038;-77
2023/02/26 10:18:51;;;;;;;7.77;3.90;;;-1.40;99.90;;;;;;5000510;28;20042;-77
2023/02/26 10:21:42;;;;;;;6.43;2.90;;;-1.40;99.90;;;;;;5005081;28;20033;-77
2023/02/26 10:24:39;;;;;;;6.33;3.20;;;-1.40;99.90;;;;;;5002710;28;20034;-77
2023/02/26 10:27:12;;;;;;;4.67;3.37;;;-1.30;99.90;;;;;;4999027;28;20026;-78
2023/02/26 10:29:55;;;;;;;3.50;3.10;;;-1.20;99.90;;;;;;4998995;28;20073;-80
2023/02/26 10:32:27;;;;;;;4.67;3.03;;;-1.00;99.90;;;;;;5000981;28;20034;-80
2023/02/26 10:35:13;;;;;;;6.23;3.43;;;-0.90;99.90;;;;;;5003537;28;20113;-79
2023/02/26 10:37:44;;;;;;;;;;;-0.80;99.90;;;;;;5002835;28;20052;-80
2023/02/26 10:40:34;;;;;;;5.10;3.17;;;-0.80;99.90;;;;;;5002926;28;19909;-80
2023/02/26 10:43:11;;;;;;;3.60;3.07;;;-0.80;99.90;;;;;;5014084;28;20026;-79
2023/02/26 10:46:00;;;;;;;7.17;3.30;;;-0.80;99.90;;;;;;5001781;28;20101;-79
2023/02/26 10:48:44;;;;;;;5.77;3.70;;;-0.80;99.90;;;;;;4999762;28;20034;-79
2023/02/26 10:51:17;;;;;;;5.13;3.47;;;-0.90;99.90;;;;;;4997182;28;20079;-79
2023/02/26 10:53:48;;;;;;;4.50;3.50;;;-0.90;99.90;;;;;;5004259;28;20095;-83
2023/02/26 10:56:22;;;;;;;5.03;3.50;;;-0.90;99.90;;;;;;5004076;28;20464;-83
2023/02/26 10:58:50;;;;;;;5.18;3.75;;;-0.80;99.90;;;;;;5002375;28;20110;-84
2023/02/26 11:01:18;;;;;;;6.10;4.40;;;-0.70;99.90;;;;;;5001509;28;20042;-84
2023/02/26 11:03:47;;;;;;;4.40;3.07;;;-0.70;99.90;;;;;;5003901;28;20378;-84
2023/02/26 11:06:23;;;;;;;4.50;3.60;;;-0.60;99.90;;;;;;5003746;28;20386;-84
2023/02/26 11:08:53;;;;;;;3.93;3.20;;;-0.60;99.90;;;;;;5003273;28;20038;-84
2023/02/26 11:11:47;;;;;;;5.47;3.37;;;-0.50;99.90;;;;;;5002864;28;20053;-84
2023/02/26 11:14:13;;;;;;;5.87;3.17;;;-0.60;99.90;;;;;;5003363;28;20026;-83
2023/02/26 11:17:03;;;;;;;4.57;3.47;;;-0.60;99.90;;;;;;5002023;28;20151;-84
2023/02/26 11:19:40;;;;;;;8.63;3.20;;;-0.50;99.90;;;;;;5012818;28;20069;-83
2023/02/26 11:22:08;;;;;;;4.03;3.37;;;-0.50;99.90;;;;;;5001456;28;20129;-84
2023/02/26 11:24:48;;;;;;;5.03;3.50;;;-0.50;99.90;;;;;;5000235;28;20062;-84
2023/02/26 11:27:18;;;;;;;4.40;3.00;;;-0.40;99.90;;;;;;5000059;28;20194;-83
2023/02/26 11:29:52;;;;;;;4.87;3.50;;;-0.40;99.90;;;;;;4999318;28;20022;-83
2023/02/26 11:32:21;;;;;;;3.50;2.70;;;-0.30;99.90;;;;;;4999462;28;20468;-83
2023/02/26 11:34:49;;;;;;;3.90;3.00;;;-0.20;99.90;;;;;;5000407;28;20505;-83
2023/02/26 11:37:26;;;;;;;5.77;4.17;;;-0.20;99.90;;;;;;5000792;28;20719;-83
2023/02/26 11:39:57;;;;;;;6.20;3.23;;;-0.20;99.90;;;;;;4996164;28;20034;-83
2023/02/26 11:42:23;;;;;;;3.47;3.00;;;-0.10;99.90;;;;;;5002323;28;20061;-79
2023/02/26 11:44:50;;;;;;;4.73;3.30;;;-0.20;99.90;;;;;;5004228;28;20406;-81
2023/02/26 11:47:25;;;;;;;4.83;2.90;;;-0.30;99.90;;;;;;5002476;28;20034;-82
2023/02/26 11:49:54;;;;;;;5.32;3.42;;;-0.30;99.90;;;;;;5002884;28;20025;-80
2023/02/26 11:52:33;;;;;;;3.50;2.97;;;-0.30;99.90;;;;;;5002789;28;20030;-79
2023/02/26 11:55:20;;;;;;;3.70;3.40;;;-0.40;99.90;;;;;;5016367;28;20030;-81
2023/02/26 11:57:56;;;;;;;3.60;3.17;;;-0.40;99.90;;;;;;5015554;28;20038;-81
2023/02/26 12:00:33;;;;;;;4.20;3.13;;;-0.30;99.90;;;;;;5028411;28;20038;-80
2023/02/26 12:03:06;;;;;;;3.60;2.70;;;-0.20;99.90;;;;;;5007051;28;20108;-81
2023/02/26 12:05:33;;;;;;;3.23;2.93;;;-0.10;99.90;;;;;;5006893;28;20489;-83
2023/02/26 12:07:59;;;;;;;3.43;2.80;;;-0.10;99.90;;;;;;5007440;28;20026;-83
2023/02/26 12:10:49;;;;;;;4.03;3.63;;;0.00;99.90;;;;;;5006822;28;20133;-83
2023/02/26 12:13:28;;;;;;;3.27;2.90;;;0.00;99.90;;;;;;5005431;28;20041;-83
2023/02/26 12:16:09;;;;;;;51.00;27.63;;;0.20;99.90;;;;;;5006092;28;20034;-83
2023/02/26 12:19:04;;;;;;;50.87;27.00;;;0.20;99.90;;;;;;5008168;28;20038;-83
2023/02/26 12:21:30;;;;;;;81.53;44.87;;;0.20;99.90;;;;;;5006235;28;20042;-83
2023/02/26 12:24:14;;;;;;;64.07;43.63;;;0.20;99.90;;;;;;5006044;28;20631;-84
2023/02/26 12:26:41;;;;;;;7.63;6.83;;;0.20;99.90;;;;;;5003273;28;20471;-84
2023/02/26 12:29:33;;;;;;;4.77;3.80;;;0.50;99.90;;;;;;5005109;28;20039;-84
2023/02/26 12:32:20;;;;;;;4.47;2.37;;;0.70;99.90;;;;;;5002151;28;20030;-84
2023/02/26 12:35:14;;;;;;;5.27;2.50;;;1.10;99.90;;;;;;5005122;28;20052;-84
2023/02/26 12:38:13;;;;;;;4.97;2.43;;;1.30;99.90;;;;;;5007012;28;20387;-84
2023/02/26 12:40:57;;;;;;;5.87;2.50;;;1.50;99.90;;;;;;5002362;28;20487;-85
2023/02/26 12:43:47;;;;;;;4.23;3.00;;;1.60;99.90;;;;;;5005003;28;20088;-85
2023/02/26 12:46:21;;;;;;;2.80;2.20;;;1.50;99.90;;;;;;5005005;28;21032;-84
2023/02/26 12:49:05;;;;;;;3.17;2.40;;;1.30;99.90;;;;;;5004083;28;20034;-85
2023/02/26 12:51:53;;;;;;;2.60;2.10;;;1.20;99.90;;;;;;5018136;28;20399;-85
2023/02/26 12:54:29;;;;;;;2.53;1.83;;;1.00;99.90;;;;;;5003165;28;20046;-84
2023/02/26 12:57:16;;;;;;;10.50;4.13;;;0.90;99.90;;;;;;5003518;28;20026;-84
2023/02/26 13:00:11;;;;;;;4.80;2.70;;;0.90;99.90;;;;;;5001432;28;20028;-79
2023/02/26 13:03:23;;;;;;;3.07;2.30;;;1.20;99.90;;;;;;5001534;28;20045;-79
2023/02/26 13:06:15;;;;;;;2.93;2.10;;;1.50;99.90;;;;;;4993878;28;20410;-80
2023/02/26 13:09:15;;;;;;;2.80;2.23;;;1.60;99.90;;;;;;5004628;28;20988;-79
2023/02/26 13:11:58;;;;;;;3.10;1.80;;;1.50;99.90;;;;;;5004005;28;20048;-80
2023/02/26 13:14:41;;;;;;;2.57;2.00;;;1.40;99.90;;;;;;5003399;28;20041;-80
2023/02/26 13:17:36;;;;;;;2.13;1.63;;;1.30;99.90;;;;;;5003947;28;20463;-80
2023/02/26 13:20:20;;;;;;;2.20;1.60;;;1.10;99.90;;;;;;5005243;28;20037;-80
2023/02/26 13:23:00;;;;;;;3.93;2.13;;;0.70;99.90;;;;;;5001108;28;20022;-80